Coronel Cornejo, Argentina
Current Conditions -  °F | °C
As of 11:00 PM on Sunday 21 Dec 2014 (Local Time) from SLTJ Reporting Station
Broken Clouds Broken Clouds  
Wind Chill: 18°   Ceiling: 3000
Heat Index: 18°   Visibility: 6mi
Dew Point: 15°   Wind: 12mph
Humidity: 83%   Direction: 150°SSE
Pressure: 30"   Gusts: NA
Location:  22.85°S, 63.86°W
Report Text: SLTJ 220200Z 15010KT 9999 BKN030 BKN070 18/15 Q1016
Loading
Personal Weather Stations






























Interactive Weather Map New forecast layout! Learn more

10-Day Weather Forecast

Advertisements
Track Severe Weather on mobile